Pickton, Texas
Current Conditions -  °F | °C
As of 4:15 PM on Wednesday 28 Jan 2015 (Local Time) from KSLR Reporting Station
Clear Clear  
Wind Chill: 77°   Ceiling: Unl
Heat Index: 77°   Visibility: 10mi
Dew Point: 40°   Wind: 15mph
Humidity: 26%   Direction: 200°SSW
Pressure: 30.03"   Gusts: NA
Location:  33.03°N, 95.39°W
Report Text: KSLR 282215Z AUTO 20013KT 10SM CLR 25/04 A3003 RMK AO2 T02500044
Loading
Personal Weather Stations






























Interactive Weather Map New forecast layout! Learn more

10-Day Weather Forecast

Advertisements
Track Severe Weather on mobile